Time;durP1;ratioP1;P1;durP2;ratioP2;P2;SDS_P1;SDS_P2;PMS_P1;PMS_P2;Temp;Humidity;BMP_temperature;BMP_pressure;BME280_temperature;BME280_humidity;BME280_pressure;Samples;Min_cycle;Max_cycle;Signal;HPM_P1;HPM_P2
2023/11/01 00:00:05;;;;;;;3.25;0.75;;;12.00;99.90;;;;;;5038042;28;20053;-71
2023/11/01 00:02:32;;;;;;;2.50;0.68;;;12.00;99.90;;;;;;5033190;28;20052;-71
2023/11/01 00:04:58;;;;;;;0.68;0.47;;;12.00;99.90;;;;;;5035618;28;20490;-71
2023/11/01 00:07:24;;;;;;;0.60;0.60;;;12.00;99.90;;;;;;5039253;28;20485;-71
2023/11/01 00:09:50;;;;;;;0.40;0.38;;;12.00;99.90;;;;;;5048386;28;20027;-71
2023/11/01 00:12:16;;;;;;;1.25;0.75;;;12.00;99.90;;;;;;5041128;28;20121;-71
2023/11/01 00:14:42;;;;;;;0.75;0.50;;;12.00;99.90;;;;;;5036887;28;20538;-71
2023/11/01 00:17:07;;;;;;;0.98;0.85;;;12.00;99.90;;;;;;5032624;28;20036;-71
2023/11/01 00:19:33;;;;;;;0.85;0.60;;;12.00;99.90;;;;;;5029280;28;20392;-71
2023/11/01 00:21:59;;;;;;;0.57;0.57;;;12.00;99.90;;;;;;5031138;28;20664;-71
2023/11/01 00:24:27;;;;;;;3.28;0.60;;;11.90;99.90;;;;;;5048003;28;20033;-71
2023/11/01 00:26:53;;;;;;;1.25;0.25;;;11.90;99.90;;;;;;5047914;28;20133;-71
2023/11/01 00:29:18;;;;;;;0.88;0.47;;;11.90;99.90;;;;;;5043299;28;20580;-71
2023/11/01 00:31:44;;;;;;;2.03;0.88;;;11.80;99.90;;;;;;5040653;28;20029;-71
2023/11/01 00:34:10;;;;;;;0.75;0.43;;;11.80;99.90;;;;;;5034069;28;20117;-71
2023/11/01 00:36:36;;;;;;;1.40;0.60;;;11.70;99.90;;;;;;5034528;28;20029;-71
2023/11/01 00:39:02;;;;;;;0.50;0.45;;;11.70;99.90;;;;;;5050656;28;20028;-71
2023/11/01 00:41:27;;;;;;;1.17;0.68;;;11.60;99.90;;;;;;5047822;28;20087;-71
2023/11/01 00:43:53;;;;;;;3.20;1.15;;;11.60;99.90;;;;;;5031169;28;20481;-71
2023/11/01 00:46:19;;;;;;;1.90;0.85;;;11.60;99.90;;;;;;5049444;28;20076;-71
2023/11/01 00:48:45;;;;;;;0.43;0.25;;;11.50;99.90;;;;;;5039121;28;20033;-71
2023/11/01 00:51:10;;;;;;;1.38;0.68;;;11.60;99.90;;;;;;5034433;28;20033;-71
2023/11/01 00:53:36;;;;;;;1.35;0.95;;;11.60;99.90;;;;;;5056585;28;20498;-71
2023/11/01 00:56:02;;;;;;;0.50;0.47;;;11.60;99.90;;;;;;5038659;28;20025;-71
2023/11/01 00:58:28;;;;;;;1.50;0.63;;;11.50;99.90;;;;;;5030823;28;20029;-71
2023/11/01 01:00:54;;;;;;;3.20;1.55;;;11.60;99.90;;;;;;5035800;28;20044;-71
2023/11/01 01:03:19;;;;;;;1.70;1.30;;;11.60;99.90;;;;;;5027407;28;20045;-71
2023/11/01 01:05:45;;;;;;;5.35;1.80;;;11.50;99.90;;;;;;5057104;28;20492;-71
2023/11/01 01:08:11;;;;;;;7.15;1.88;;;11.60;99.90;;;;;;5032090;28;20029;-71
2023/11/01 01:10:37;;;;;;;6.10;1.30;;;11.50;99.90;;;;;;5039386;28;20469;-71
2023/11/01 01:13:02;;;;;;;4.63;1.48;;;11.50;99.90;;;;;;5051471;28;20025;-71
2023/11/01 01:15:28;;;;;;;2.05;0.90;;;11.50;99.90;;;;;;5049760;28;20805;-71
2023/11/01 01:17:54;;;;;;;11.68;1.00;;;11.50;99.90;;;;;;5034789;28;20094;-71
2023/11/01 01:20:20;;;;;;;0.93;0.75;;;11.50;99.90;;;;;;5049836;28;20045;-71
2023/11/01 01:22:46;;;;;;;1.20;0.57;;;11.50;99.90;;;;;;5064935;28;20431;-71
2023/11/01 01:25:11;;;;;;;2.25;1.25;;;11.50;99.90;;;;;;5043954;28;20048;-71
2023/11/01 01:27:37;;;;;;;0.80;0.77;;;11.50;99.90;;;;;;5021368;28;20028;-71
2023/11/01 01:30:03;;;;;;;0.90;0.50;;;11.40;99.90;;;;;;5017664;28;20101;-71
2023/11/01 01:32:33;;;;;;;0.50;0.50;;;11.40;99.90;;;;;;5029405;28;20394;-71
2023/11/01 01:34:59;;;;;;;0.70;0.45;;;11.40;99.90;;;;;;5046372;28;20484;-71
2023/11/01 01:37:25;;;;;;;2.30;0.68;;;11.40;99.90;;;;;;5050764;28;20025;-71
2023/11/01 01:39:51;;;;;;;1.13;0.82;;;11.30;99.90;;;;;;5037114;28;20115;-71
2023/11/01 01:42:17;;;;;;;3.33;1.05;;;11.30;99.90;;;;;;5041866;28;20031;-71
2023/11/01 01:44:43;;;;;;;0.20;0.20;;;11.40;99.90;;;;;;5036828;28;20033;-71
2023/11/01 01:47:09;;;;;;;1.90;1.08;;;11.30;99.90;;;;;;5031420;28;20029;-71
2023/11/01 01:49:35;;;;;;;0.52;0.47;;;11.30;99.90;;;;;;5042237;28;20440;-71
2023/11/01 01:52:02;;;;;;;2.45;1.08;;;11.30;99.90;;;;;;5039383;28;20478;-71
2023/11/01 01:54:28;;;;;;;2.95;1.50;;;11.30;99.90;;;;;;5045730;28;20385;-71
2023/11/01 01:56:54;;;;;;;0.65;0.60;;;11.30;99.90;;;;;;5046855;28;20025;-71
2023/11/01 01:59:21;;;;;;;4.97;0.80;;;11.30;99.90;;;;;;5057583;28;20035;-71
2023/11/01 02:01:49;;;;;;;1.77;1.10;;;11.30;99.90;;;;;;5014582;28;20022;-71
2023/11/01 02:04:16;;;;;;;2.92;1.15;;;11.40;99.90;;;;;;5042340;28;20064;-71
2023/11/01 02:06:43;;;;;;;1.35;0.90;;;11.30;99.90;;;;;;5051389;28;20026;-71
2023/11/01 02:09:15;;;;;;;0.77;0.73;;;11.30;99.90;;;;;;5059228;28;20025;-71
2023/11/01 02:11:44;;;;;;;1.63;1.02;;;11.40;99.90;;;;;;5026412;28;20029;-71
2023/11/01 02:14:11;;;;;;;2.67;0.88;;;11.40;99.90;;;;;;5055101;28;20021;-72
2023/11/01 02:16:38;;;;;;;1.15;1.05;;;11.40;99.90;;;;;;5044766;28;20451;-71
2023/11/01 02:19:11;;;;;;;1.65;1.40;;;11.40;99.90;;;;;;5054085;28;20393;-71
2023/11/01 02:21:37;;;;;;;1.55;0.77;;;11.40;99.90;;;;;;5029894;28;20128;-71
2023/11/01 02:24:03;;;;;;;9.35;0.98;;;11.40;99.90;;;;;;5034757;28;20105;-71
2023/11/01 02:26:30;;;;;;;4.90;1.63;;;11.40;99.90;;;;;;5040225;28;20147;-71
2023/11/01 02:28:56;;;;;;;3.30;0.90;;;11.30;99.90;;;;;;5045127;28;20025;-71
2023/11/01 02:31:21;;;;;;;1.13;0.73;;;11.40;99.90;;;;;;5044688;28;20053;-71
2023/11/01 02:33:47;;;;;;;4.68;1.40;;;11.40;99.90;;;;;;5045245;28;20057;-71
2023/11/01 02:36:13;;;;;;;2.10;1.48;;;11.40;99.90;;;;;;5039865;28;20026;-71
2023/11/01 02:38:39;;;;;;;3.42;0.50;;;11.30;99.90;;;;;;5053467;28;20095;-71
2023/11/01 02:41:05;;;;;;;1.70;1.35;;;11.30;99.90;;;;;;5030855;28;20037;-71
2023/11/01 02:43:31;;;;;;;1.85;0.75;;;11.30;99.90;;;;;;5035518;28;20044;-71
2023/11/01 02:45:56;;;;;;;1.73;0.77;;;11.40;99.90;;;;;;5047950;28;20060;-71
2023/11/01 02:48:22;;;;;;;2.47;0.65;;;11.30;99.90;;;;;;5048024;28;20612;-71
2023/11/01 02:50:48;;;;;;;1.23;0.73;;;11.30;99.90;;;;;;5034879;28;20036;-71
2023/11/01 02:53:14;;;;;;;0.70;0.60;;;11.30;99.90;;;;;;5041814;28;20029;-71
2023/11/01 02:55:41;;;;;;;1.15;0.68;;;11.30;99.90;;;;;;5042309;28;20112;-71
2023/11/01 02:58:06;;;;;;;0.57;0.40;;;11.30;99.90;;;;;;5022110;28;20036;-71
2023/11/01 03:00:32;;;;;;;3.40;0.45;;;11.30;99.90;;;;;;5054311;28;20025;-71
2023/11/01 03:02:58;;;;;;;2.30;1.30;;;11.30;99.90;;;;;;5041946;28;20017;-71
2023/11/01 03:05:27;;;;;;;3.03;0.70;;;11.30;99.90;;;;;;5041199;28;20095;-71
2023/11/01 03:07:54;;;;;;;1.27;1.15;;;11.30;99.90;;;;;;5040544;28;20761;-71
2023/11/01 03:10:19;;;;;;;2.42;1.70;;;11.40;99.90;;;;;;5035022;28;20033;-71
2023/11/01 03:12:45;;;;;;;2.08;0.82;;;11.30;99.90;;;;;;5045309;28;20033;-71
2023/11/01 03:15:12;;;;;;;2.13;0.85;;;11.30;99.90;;;;;;5040423;28;20457;-71
2023/11/01 03:17:38;;;;;;;2.55;1.67;;;11.30;99.90;;;;;;5037727;28;20112;-71
2023/11/01 03:20:07;;;;;;;1.00;0.75;;;11.30;99.90;;;;;;5037069;28;20120;-71
2023/11/01 03:22:36;;;;;;;1.00;0.70;;;11.30;99.90;;;;;;5062439;28;20495;-71
2023/11/01 03:25:02;;;;;;;1.08;0.88;;;11.30;99.90;;;;;;5025852;28;20075;-71
2023/11/01 03:27:28;;;;;;;1.88;1.15;;;11.40;99.90;;;;;;5047855;28;20043;-71
2023/11/01 03:29:56;;;;;;;1.88;0.50;;;11.40;99.90;;;;;;5048880;28;20037;-71
2023/11/01 03:32:25;;;;;;;1.45;0.70;;;11.40;99.90;;;;;;5038201;28;20041;-71
2023/11/01 03:34:52;;;;;;;0.70;0.55;;;11.40;99.90;;;;;;5051286;28;20033;-71
2023/11/01 03:37:17;;;;;;;1.63;0.98;;;11.40;99.90;;;;;;5061803;28;20116;-71
2023/11/01 03:39:43;;;;;;;1.23;0.75;;;11.40;99.90;;;;;;5050221;28;20112;-71
2023/11/01 03:42:09;;;;;;;1.27;0.60;;;11.40;99.90;;;;;;5043374;28;20041;-71
2023/11/01 03:44:35;;;;;;;0.52;0.50;;;11.40;99.90;;;;;;5034791;28;20040;-71
2023/11/01 03:47:02;;;;;;;0.77;0.52;;;11.50;99.90;;;;;;5038856;28;20509;-71
2023/11/01 03:49:31;;;;;;;2.00;0.93;;;11.50;99.90;;;;;;5037187;28;20473;-71
2023/11/01 03:52:01;;;;;;;0.65;0.50;;;11.50;99.90;;;;;;5034378;28;20112;-71
2023/11/01 03:54:28;;;;;;;0.45;0.38;;;11.50;99.90;;;;;;5045632;28;20025;-71
2023/11/01 03:56:54;;;;;;;1.35;0.63;;;11.50;99.90;;;;;;5033392;28;20025;-71
2023/11/01 03:59:20;;;;;;;2.72;0.85;;;11.60;99.90;;;;;;5037116;28;20040;-71
2023/11/01 04:01:46;;;;;;;1.80;0.88;;;11.60;99.90;;;;;;5025897;28;20029;-71
2023/11/01 04:04:12;;;;;;;7.30;0.88;;;11.60;99.90;;;;;;5062172;28;20028;-71
2023/11/01 04:06:38;;;;;;;2.15;1.05;;;11.50;99.90;;;;;;5050268;28;20052;-71
2023/11/01 04:09:04;;;;;;;1.60;0.98;;;11.60;99.90;;;;;;5037752;28;20087;-71
2023/11/01 04:11:33;;;;;;;1.48;0.77;;;11.60;99.90;;;;;;5039183;28;20033;-71
2023/11/01 04:14:00;;;;;;;0.70;0.60;;;11.50;99.90;;;;;;5047047;28;20044;-71
2023/11/01 04:16:25;;;;;;;26.65;1.17;;;11.50;99.90;;;;;;5038889;28;20024;-71
2023/11/01 04:18:51;;;;;;;3.80;0.82;;;11.50;99.90;;;;;;5042896;28;20029;-71
2023/11/01 04:21:18;;;;;;;0.43;0.43;;;11.50;99.90;;;;;;5038462;28;20033;-71
2023/11/01 04:23:44;;;;;;;6.90;0.85;;;11.50;99.90;;;;;;5050399;28;20040;-71
2023/11/01 04:26:09;;;;;;;0.65;0.57;;;11.50;99.90;;;;;;5036177;28;20025;-71
2023/11/01 04:28:35;;;;;;;1.27;0.73;;;11.50;99.90;;;;;;5033303;28;20114;-71
2023/11/01 04:31:02;;;;;;;1.38;1.15;;;11.50;99.90;;;;;;5032612;28;20379;-71
2023/11/01 04:33:28;;;;;;;1.55;1.20;;;11.50;99.90;;;;;;5044383;28;20036;-71
2023/11/01 04:35:54;;;;;;;3.50;0.98;;;11.60;99.90;;;;;;5047539;28;20032;-71
2023/11/01 04:38:20;;;;;;;0.98;0.65;;;11.60;99.90;;;;;;5038204;28;20033;-71
2023/11/01 04:40:47;;;;;;;2.42;1.05;;;11.60;99.90;;;;;;5031045;28;20037;-71
2023/11/01 04:43:12;;;;;;;1.83;0.98;;;11.60;99.90;;;;;;5042392;28;20025;-71
2023/11/01 04:45:38;;;;;;;3.72;0.63;;;11.60;99.90;;;;;;5047473;28;20056;-71
2023/11/01 04:48:04;;;;;;;1.38;0.77;;;11.60;99.90;;;;;;5026379;28;20028;-71
2023/11/01 04:50:30;;;;;;;1.13;0.82;;;11.60;99.90;;;;;;5047340;28;20366;-71
2023/11/01 04:52:55;;;;;;;1.20;0.75;;;11.60;99.90;;;;;;5049176;28;20354;-71
2023/11/01 04:55:21;;;;;;;1.23;0.90;;;11.60;99.90;;;;;;5037061;28;20033;-71
2023/11/01 04:57:52;;;;;;;1.10;0.60;;;11.60;99.90;;;;;;5037187;28;20033;-71
2023/11/01 05:00:18;;;;;;;0.80;0.77;;;11.60;99.90;;;;;;5032041;28;20029;-71
2023/11/01 05:02:48;;;;;;;3.60;0.95;;;11.70;99.90;;;;;;5034907;28;20519;-71
2023/11/01 05:05:14;;;;;;;3.15;1.40;;;11.70;99.90;;;;;;5049919;28;20040;-71
2023/11/01 05:07:41;;;;;;;4.85;0.90;;;11.60;99.90;;;;;;5048446;28;20075;-71
2023/11/01 05:10:07;;;;;;;1.10;0.70;;;11.60;99.90;;;;;;5053356;28;20029;-71
2023/11/01 05:12:34;;;;;;;2.92;1.27;;;11.60;99.90;;;;;;5048217;28;20040;-71
2023/11/01 05:15:00;;;;;;;1.25;1.15;;;11.60;99.90;;;;;;5059418;28;20020;-71
2023/11/01 05:17:26;;;;;;;1.17;1.00;;;11.50;99.90;;;;;;5043912;28;20083;-71
2023/11/01 05:19:53;;;;;;;4.50;1.25;;;11.50;99.90;;;;;;5032393;28;20055;-71
2023/11/01 05:22:18;;;;;;;1.13;0.88;;;11.50;99.90;;;;;;5034981;28;20054;-71
2023/11/01 05:24:49;;;;;;;1.60;1.08;;;11.40;99.90;;;;;;5042760;28;20473;-71
2023/11/01 05:27:15;;;;;;;4.68;1.27;;;11.40;99.90;;;;;;5034983;28;20528;-71
2023/11/01 05:29:41;;;;;;;4.90;0.57;;;11.30;99.90;;;;;;5035471;28;20469;-71
2023/11/01 05:32:08;;;;;;;1.67;0.57;;;11.30;99.90;;;;;;5038773;28;20056;-70
2023/11/01 05:34:34;;;;;;;1.83;1.00;;;11.30;99.90;;;;;;5050607;28;20040;-70
2023/11/01 05:37:00;;;;;;;0.52;0.52;;;11.30;99.90;;;;;;5040851;28;20021;-71
2023/11/01 05:39:26;;;;;;;2.17;0.85;;;11.30;99.90;;;;;;5040803;28;20393;-70
2023/11/01 05:41:52;;;;;;;0.85;0.70;;;11.30;99.90;;;;;;5039980;28;20473;-70
2023/11/01 05:44:20;;;;;;;1.08;0.60;;;11.30;99.90;;;;;;5036068;28;20036;-70
2023/11/01 05:46:47;;;;;;;0.93;0.60;;;11.30;99.90;;;;;;5037814;28;20041;-70
2023/11/01 05:49:14;;;;;;;2.10;0.65;;;11.30;99.90;;;;;;5044266;28;20444;-70
2023/11/01 05:51:40;;;;;;;5.38;1.63;;;11.30;99.90;;;;;;5038929;28;20051;-70
2023/11/01 05:54:06;;;;;;;3.20;0.82;;;11.30;99.90;;;;;;5048118;28;20489;-70
2023/11/01 05:56:32;;;;;;;1.60;1.08;;;11.20;99.90;;;;;;5040716;28;20076;-70
2023/11/01 05:58:58;;;;;;;2.70;0.80;;;11.20;99.90;;;;;;5029226;28;20037;-70
2023/11/01 06:01:24;;;;;;;1.50;0.70;;;11.20;99.90;;;;;;5042051;28;20083;-70
2023/11/01 06:03:51;;;;;;;2.00;0.65;;;11.10;99.90;;;;;;5044523;28;20460;-69
2023/11/01 06:06:19;;;;;;;1.55;0.45;;;11.00;99.90;;;;;;5037972;28;20040;-69
2023/11/01 06:08:45;;;;;;;1.10;0.60;;;11.00;99.90;;;;;;5045788;28;20517;-68
2023/11/01 06:11:11;;;;;;;1.02;0.60;;;11.00;99.90;;;;;;5043017;28;20068;-69
2023/11/01 06:13:36;;;;;;;3.00;0.70;;;11.00;99.90;;;;;;5054667;28;20028;-68
2023/11/01 06:16:04;;;;;;;4.32;0.73;;;10.90;99.90;;;;;;5050636;28;20025;-69
2023/11/01 06:18:34;;;;;;;0.73;0.63;;;10.90;99.90;;;;;;5040953;28;20026;-68
2023/11/01 06:20:59;;;;;;;0.77;0.60;;;10.90;99.90;;;;;;5042080;28;20029;-68
2023/11/01 06:23:25;;;;;;;1.17;0.55;;;11.00;99.90;;;;;;5048185;28;20115;-68
2023/11/01 06:25:51;;;;;;;3.38;0.60;;;10.90;99.90;;;;;;5036573;28;20186;-69
2023/11/01 06:28:17;;;;;;;1.25;0.57;;;11.00;99.90;;;;;;5040171;28;20045;-69
2023/11/01 06:30:43;;;;;;;0.45;0.43;;;11.00;99.90;;;;;;5036743;28;20026;-70
2023/11/01 06:33:09;;;;;;;2.92;0.88;;;11.00;99.90;;;;;;5039891;28;20037;-70
2023/11/01 06:35:34;;;;;;;1.10;0.50;;;11.00;99.90;;;;;;5033353;28;20021;-70
2023/11/01 06:38:00;;;;;;;1.67;0.57;;;11.00;99.90;;;;;;5039710;28;20029;-70
2023/11/01 06:40:26;;;;;;;3.72;0.93;;;11.00;99.90;;;;;;5034834;28;20042;-71
2023/11/01 06:42:53;;;;;;;0.90;0.40;;;11.10;99.90;;;;;;5045050;28;20037;-73
2023/11/01 06:45:19;;;;;;;1.35;0.73;;;11.10;99.90;;;;;;5056360;28;20051;-71
2023/11/01 06:47:45;;;;;;;2.17;0.90;;;11.10;99.90;;;;;;5040846;28;20032;-71
2023/11/01 06:50:11;;;;;;;0.40;0.38;;;11.10;99.90;;;;;;5033389;28;20025;-72
2023/11/01 06:52:37;;;;;;;2.42;0.80;;;11.20;99.90;;;;;;5039451;28;20110;-69
2023/11/01 06:55:03;;;;;;;0.55;0.38;;;11.20;99.90;;;;;;5046675;28;20020;-70
2023/11/01 06:57:29;;;;;;;0.75;0.63;;;11.20;99.90;;;;;;5051883;28;20138;-70
2023/11/01 06:59:54;;;;;;;1.73;0.75;;;11.30;99.90;;;;;;5049524;28;20488;-70
2023/11/01 07:02:20;;;;;;;0.75;0.40;;;11.30;99.90;;;;;;5046815;28;20032;-70
2023/11/01 07:04:48;;;;;;;0.80;0.80;;;11.30;99.90;;;;;;5035224;28;20044;-70
2023/11/01 07:07:13;;;;;;;2.13;0.60;;;11.30;99.90;;;;;;5044669;28;20037;-71
2023/11/01 07:09:40;;;;;;;0.47;0.40;;;11.40;99.90;;;;;;5040088;28;20397;-69
2023/11/01 07:12:07;;;;;;;1.05;0.60;;;11.50;99.90;;;;;;5054131;28;20024;-69
2023/11/01 07:14:32;;;;;;;0.43;0.43;;;11.50;99.90;;;;;;5040494;28;20029;-69
2023/11/01 07:16:58;;;;;;;0.95;0.45;;;11.50;99.90;;;;;;5021613;28;20715;-69
2023/11/01 07:19:24;;;;;;;1.30;0.60;;;11.50;99.90;;;;;;5035583;28;20041;-70
2023/11/01 07:21:49;;;;;;;0.63;0.47;;;11.60;99.90;;;;;;5035476;28;20072;-70
2023/11/01 07:24:15;;;;;;;1.42;0.65;;;11.50;99.90;;;;;;5056962;28;20392;-70
2023/11/01 07:26:41;;;;;;;0.32;0.32;;;11.60;99.90;;;;;;5038087;28;20101;-71
2023/11/01 07:29:07;;;;;;;10.57;0.85;;;11.60;99.90;;;;;;5041996;28;20535;-71
2023/11/01 07:31:32;;;;;;;0.57;0.45;;;11.60;99.90;;;;;;5042227;28;20044;-71
2023/11/01 07:33:58;;;;;;;1.33;1.05;;;11.60;99.90;;;;;;5062591;28;20021;-71
2023/11/01 07:36:24;;;;;;;1.38;0.95;;;11.60;99.90;;;;;;5059680;28;20033;-71
2023/11/01 07:38:50;;;;;;;0.85;0.40;;;11.50;99.90;;;;;;5063264;28;20067;-64
2023/11/01 07:41:16;;;;;;;3.10;0.98;;;11.50;99.90;;;;;;5059162;28;20067;-71
2023/11/01 07:43:42;;;;;;;1.10;0.52;;;11.50;99.90;;;;;;5061484;28;20077;-70
2023/11/01 07:46:11;;;;;;;0.55;0.50;;;11.50;99.90;;;;;;5059341;28;20029;-70
2023/11/01 07:48:37;;;;;;;5.95;1.67;;;11.60;99.90;;;;;;5058167;28;20030;-70
2023/11/01 07:51:07;;;;;;;2.03;0.80;;;11.60;99.90;;;;;;5061116;28;20036;-70
2023/11/01 07:53:36;;;;;;;0.82;0.70;;;11.60;99.90;;;;;;5060784;28;20024;-70
2023/11/01 07:56:02;;;;;;;5.32;0.40;;;11.70;99.90;;;;;;5063683;28;20032;-71
2023/11/01 07:58:29;;;;;;;1.23;0.47;;;11.70;99.90;;;;;;5052294;28;20028;-69
2023/11/01 08:00:55;;;;;;;5.85;1.08;;;11.80;99.90;;;;;;5045438;28;20455;-70
2023/11/01 08:03:21;;;;;;;2.05;0.60;;;11.80;99.90;;;;;;5041629;28;20105;-69
2023/11/01 08:05:47;;;;;;;0.90;0.60;;;11.90;99.90;;;;;;5045431;28;20039;-70
2023/11/01 08:08:12;;;;;;;1.75;1.17;;;11.90;99.90;;;;;;5043947;28;20100;-70
2023/11/01 08:10:38;;;;;;;2.90;0.57;;;12.00;99.90;;;;;;5046638;28;20025;-70
2023/11/01 08:13:04;;;;;;;13.00;1.30;;;12.00;99.90;;;;;;5043396;28;20104;-70
2023/11/01 08:15:33;;;;;;;0.20;0.20;;;12.00;99.90;;;;;;5041305;28;20119;-70
2023/11/01 08:18:02;;;;;;;1.38;0.70;;;12.10;99.90;;;;;;5048295;28;20040;-71
2023/11/01 08:20:30;;;;;;;0.30;0.30;;;12.20;99.90;;;;;;5033609;28;20061;-70
2023/11/01 08:22:56;;;;;;;3.45;0.57;;;12.20;99.90;;;;;;5053534;28;20026;-70
2023/11/01 08:25:23;;;;;;;0.93;0.52;;;12.20;99.90;;;;;;5046298;28;20028;-71
2023/11/01 08:27:50;;;;;;;1.02;0.40;;;12.30;99.90;;;;;;5046824;28;20499;-70
2023/11/01 08:30:16;;;;;;;0.73;0.40;;;12.40;99.90;;;;;;5060332;28;20112;-70
2023/11/01 08:32:43;;;;;;;1.25;0.90;;;12.50;99.90;;;;;;5052291;28;20432;-70
2023/11/01 08:35:09;;;;;;;1.23;1.10;;;12.50;99.90;;;;;;5042060;28;20430;-70
2023/11/01 08:37:38;;;;;;;0.52;0.20;;;12.60;99.90;;;;;;5052776;28;20047;-70
2023/11/01 08:40:05;;;;;;;1.33;0.52;;;12.70;99.90;;;;;;5032843;28;20100;-70
2023/11/01 08:42:32;;;;;;;3.08;0.98;;;12.80;99.90;;;;;;5047719;28;20033;-70
2023/11/01 08:44:58;;;;;;;7.55;0.90;;;12.90;99.90;;;;;;5033191;28;20525;-70
2023/11/01 08:47:41;;;;;;;0.73;0.47;;;12.90;99.90;;;;;;5049474;28;20107;-70
2023/11/01 08:50:14;;;;;;;1.60;0.28;;;13.00;99.90;;;;;;5034476;28;20035;-70
2023/11/01 08:52:44;;;;;;;0.75;0.63;;;13.20;99.90;;;;;;5050796;28;20461;-70
2023/11/01 08:55:14;;;;;;;7.90;0.80;;;13.20;99.90;;;;;;5038659;28;20048;-70
2023/11/01 08:57:41;;;;;;;3.35;0.40;;;13.30;99.90;;;;;;5040673;28;20049;-71
2023/11/01 09:00:08;;;;;;;0.65;0.17;;;13.50;99.90;;;;;;5035862;28;20025;-71
2023/11/01 09:02:34;;;;;;;2.25;0.43;;;13.60;99.90;;;;;;5046284;28;20116;-70
2023/11/01 09:05:00;;;;;;;0.65;0.35;;;13.70;99.90;;;;;;5027516;28;20108;-71
2023/11/01 09:07:26;;;;;;;0.43;0.22;;;13.70;99.90;;;;;;5049172;28;20285;-70
2023/11/01 09:09:54;;;;;;;1.20;0.38;;;13.90;99.90;;;;;;5034308;28;20066;-68
2023/11/01 09:12:20;;;;;;;10.73;0.40;;;13.90;99.90;;;;;;5046594;28;20021;-70
2023/11/01 09:14:46;;;;;;;0.73;0.50;;;13.70;99.90;;;;;;5052005;28;20035;-69
2023/11/01 09:17:13;;;;;;;5.13;0.70;;;14.00;99.90;;;;;;5032478;28;20121;-70
2023/11/01 09:19:40;;;;;;;0.85;0.35;;;14.00;99.90;;;;;;5014713;28;20032;-69
2023/11/01 09:22:08;;;;;;;1.75;0.50;;;14.10;99.90;;;;;;5045556;28;20509;-69
2023/11/01 09:24:34;;;;;;;0.32;0.20;;;14.20;99.90;;;;;;5043135;28;20025;-68
2023/11/01 09:27:01;;;;;;;2.40;0.85;;;14.20;99.90;;;;;;5029877;28;20021;-70
2023/11/01 09:29:26;;;;;;;1.10;0.68;;;14.20;99.90;;;;;;5037125;28;20489;-70
2023/11/01 09:31:52;;;;;;;1.08;0.40;;;14.40;99.90;;;;;;5043594;28;20059;-70
2023/11/01 09:34:19;;;;;;;2.63;0.98;;;14.60;99.90;;;;;;5019589;28;20044;-70
2023/11/01 09:36:45;;;;;;;2.13;0.70;;;14.60;99.90;;;;;;5043580;28;20079;-70
2023/11/01 09:39:11;;;;;;;2.95;1.00;;;14.60;99.90;;;;;;5042801;28;20025;-70
2023/11/01 09:42:07;;;;;;;1.83;0.65;;;14.80;99.90;;;;;;5046662;28;20052;-70
2023/11/01 09:44:33;;;;;;;0.88;0.70;;;14.80;99.90;;;;;;5033406;28;20033;-70
2023/11/01 09:46:59;;;;;;;0.93;0.68;;;14.70;99.90;;;;;;5043740;28;20033;-70
2023/11/01 09:49:26;;;;;;;2.05;0.50;;;14.50;99.90;;;;;;5025099;28;20485;-69
2023/11/01 09:51:52;;;;;;;1.17;0.52;;;14.70;99.90;;;;;;5051893;28;20115;-71
2023/11/01 09:54:18;;;;;;;8.88;0.50;;;14.70;99.90;;;;;;5040797;28;20048;-70
2023/11/01 09:56:46;;;;;;;0.10;0.10;;;14.80;99.90;;;;;;5052980;28;20426;-70
2023/11/01 09:59:12;;;;;;;1.85;0.60;;;14.50;99.90;;;;;;5035698;28;20035;-71
2023/11/01 10:01:39;;;;;;;0.73;0.20;;;14.70;99.90;;;;;;5047263;28;20492;-70
2023/11/01 10:04:06;;;;;;;0.30;0.30;;;14.90;99.90;;;;;;5038588;28;20052;-71
2023/11/01 10:06:36;;;;;;;1.65;0.25;;;15.00;99.90;;;;;;5045201;28;20033;-71
2023/11/01 10:09:02;;;;;;;3.55;1.02;;;15.20;99.90;;;;;;5038163;28;20108;-71
2023/11/01 10:11:28;;;;;;;0.45;0.20;;;15.20;99.90;;;;;;5049111;28;20057;-70
2023/11/01 10:13:54;;;;;;;2.47;0.70;;;15.70;99.90;;;;;;5050356;28;20509;-71
2023/11/01 10:16:20;;;;;;;0.65;0.22;;;15.80;99.90;;;;;;5054733;28;20053;-71
2023/11/01 10:18:48;;;;;;;1.50;0.60;;;16.10;99.90;;;;;;5045991;28;20388;-71
2023/11/01 10:21:14;;;;;;;1.10;0.47;;;16.20;99.90;;;;;;5041039;28;20559;-70
2023/11/01 10:23:40;;;;;;;1.55;0.65;;;16.20;99.90;;;;;;5053052;28;20048;-70
2023/11/01 10:26:06;;;;;;;0.63;0.40;;;16.30;99.90;;;;;;5048906;28;20026;-70
2023/11/01 10:28:39;;;;;;;1.17;0.43;;;16.20;99.90;;;;;;5027811;28;20107;-70
2023/11/01 10:31:05;;;;;;;0.43;0.22;;;15.90;99.90;;;;;;5044837;28;20026;-70
2023/11/01 10:33:33;;;;;;;2.78;0.50;;;16.00;99.90;;;;;;5043610;28;20371;-71
2023/11/01 10:36:03;;;;;;;0.73;0.40;;;16.10;99.90;;;;;;5047166;28;20029;-71
2023/11/01 10:38:31;;;;;;;0.63;0.43;;;16.10;99.90;;;;;;5022945;28;20760;-73
2023/11/01 10:41:00;;;;;;;4.57;0.38;;;16.30;99.90;;;;;;5047907;28;20037;-72
2023/11/01 10:43:29;;;;;;;1.08;0.32;;;16.20;99.90;;;;;;5035867;28;20057;-71
2023/11/01 10:45:57;;;;;;;0.30;0.20;;;15.80;99.90;;;;;;5041848;28;20040;-72
2023/11/01 10:48:28;;;;;;;1.25;0.55;;;15.70;99.90;;;;;;5034513;28;20112;-72
2023/11/01 10:50:56;;;;;;;0.38;0.20;;;15.70;99.90;;;;;;5034221;28;20044;-71
2023/11/01 10:53:23;;;;;;;1.38;0.35;;;15.90;99.90;;;;;;5043241;28;20029;-71
2023/11/01 10:55:51;;;;;;;1.65;0.52;;;16.10;99.90;;;;;;5035948;28;20101;-73
2023/11/01 10:58:27;;;;;;;14.60;0.75;;;16.30;99.90;;;;;;5041139;28;20056;-73
2023/11/01 11:01:20;;;;;;;7.03;0.30;;;16.30;99.90;;;;;;5043127;28;20102;-72
2023/11/01 11:04:20;;;;;;;7.47;1.38;;;16.10;99.90;;;;;;5040203;28;20029;-71
2023/11/01 11:06:57;;;;;;;0.73;0.30;;;15.90;99.90;;;;;;5054187;28;20504;-70
2023/11/01 11:09:25;;;;;;;0.75;0.32;;;15.70;99.90;;;;;;5042986;28;20386;-72
2023/11/01 11:12:15;;;;;;;1.27;0.25;;;15.70;99.90;;;;;;5043795;28;20086;-70
2023/11/01 11:14:48;;;;;;;1.05;0.28;;;15.60;99.90;;;;;;5038492;28;20045;-76
2023/11/01 11:17:32;;;;;;;2.95;0.55;;;15.40;99.90;;;;;;5052571;28;20017;-75
2023/11/01 11:20:09;;;;;;;1.75;0.22;;;15.50;99.90;;;;;;5046821;28;20056;-64
2023/11/01 11:23:11;;;;;;;0.38;0.15;;;15.40;99.90;;;;;;5052916;28;20032;-71
2023/11/01 11:25:45;;;;;;;3.42;0.77;;;15.60;99.90;;;;;;5046671;28;20044;-71
2023/11/01 11:28:17;;;;;;;0.85;0.25;;;15.80;99.90;;;;;;5046661;28;20071;-71
2023/11/01 11:31:11;;;;;;;0.88;0.32;;;15.90;99.90;;;;;;5048104;28;20036;-71
2023/11/01 11:33:46;;;;;;;0.10;0.10;;;15.90;99.90;;;;;;5048748;28;20017;-72
2023/11/01 11:36:20;;;;;;;1.65;0.28;;;16.10;99.90;;;;;;5050840;28;20037;-71
2023/11/01 11:39:00;;;;;;;0.32;0.17;;;16.30;99.90;;;;;;5044739;28;20445;-72
2023/11/01 11:41:46;;;;;;;1.63;0.43;;;16.10;99.90;;;;;;5051215;28;20048;-72
2023/11/01 11:44:22;;;;;;;11.82;0.75;;;16.30;99.90;;;;;;5047123;28;20029;-71
2023/11/01 11:46:59;;;;;;;0.22;0.10;;;16.40;99.90;;;;;;5049777;28;20095;-72
2023/11/01 11:49:28;;;;;;;0.63;0.30;;;16.50;99.90;;;;;;5040862;28;20045;-70
2023/11/01 11:52:11;;;;;;;1.13;0.30;;;16.50;99.90;;;;;;5050814;28;20084;-70
2023/11/01 11:54:37;;;;;;;3.53;1.05;;;16.60;99.90;;;;;;5049685;28;20032;-71
2023/11/01 11:57:08;;;;;;;0.85;0.13;;;16.50;99.90;;;;;;5035150;28;20032;-70
2023/11/01 11:59:35;;;;;;;0.38;0.28;;;16.50;99.90;;;;;;5042090;28;20065;-71
2023/11/01 12:02:13;;;;;;;0.55;0.20;;;16.30;99.90;;;;;;5049780;28;20029;-71
2023/11/01 12:04:40;;;;;;;0.73;0.30;;;16.30;99.90;;;;;;5052280;28;20059;-70
2023/11/01 12:07:06;;;;;;;0.75;0.43;;;16.30;99.90;;;;;;5052442;28;20540;-71
2023/11/01 12:09:32;;;;;;;0.75;0.28;;;16.10;99.90;;;;;;5038278;28;20037;-71
2023/11/01 12:12:09;;;;;;;1.10;0.10;;;16.10;99.90;;;;;;5059986;28;20056;-71
2023/11/01 12:14:37;;;;;;;0.35;0.25;;;16.10;99.90;;;;;;5049015;28;20369;-71
2023/11/01 12:17:03;;;;;;;0.35;0.10;;;16.20;99.90;;;;;;5048908;28;20018;-71
2023/11/01 12:19:29;;;;;;;2.00;0.35;;;16.20;99.90;;;;;;5043744;28;20053;-71
2023/11/01 12:21:58;;;;;;;0.77;0.05;;;16.30;99.90;;;;;;5059693;28;20029;-71
2023/11/01 12:24:39;;;;;;;0.13;0.08;;;16.50;99.90;;;;;;5048350;28;20535;-72
2023/11/01 12:27:09;;;;;;;5.25;0.35;;;16.60;99.90;;;;;;5041218;28;20103;-71
2023/11/01 12:29:43;;;;;;;0.77;0.33;;;16.90;99.90;;;;;;5036357;28;20044;-72
2023/11/01 12:32:10;;;;;;;0.50;0.20;;;17.30;99.90;;;;;;5036538;28;20033;-71
2023/11/01 12:34:39;;;;;;;6.57;0.20;;;17.30;99.90;;;;;;5038961;28;20059;-72
2023/11/01 12:37:11;;;;;;;0.82;0.35;;;17.10;99.90;;;;;;5052970;28;20049;-71
2023/11/01 12:39:38;;;;;;;1.05;0.40;;;17.50;99.90;;;;;;5050373;28;20040;-71
2023/11/01 12:42:25;;;;;;;0.35;0.22;;;17.40;99.90;;;;;;5039264;28;20028;-72
2023/11/01 12:44:54;;;;;;;0.57;0.20;;;17.40;99.90;;;;;;5051123;28;20124;-72
2023/11/01 12:47:22;;;;;;;1.65;0.20;;;17.20;99.90;;;;;;5053913;28;20039;-71